Aviation Digital Data Service (ADDS)

Output produced by TAFs form (0449 UTC 26 April 2015)
found at http://aviationweather.gov/adds/tafs/
 
KGUP 260445Z 2605/2624 21011G18KT P6SM VCSH OVC030 
     FM260700 23013KT 5SM -RA OVC025 
     FM262000 24013G21KT 5SM -RA OVC025 
     FM262300 30011KT P6SM VCSH OVC035